Time;durP1;ratioP1;P1;durP2;ratioP2;P2;SDS_P1;SDS_P2;PMS_P1;PMS_P2;Temp;Humidity;BMP_temperature;BMP_pressure;BME280_temperature;BME280_humidity;BME280_pressure;Samples;Min_cycle;Max_cycle;Signal;HPM_P1;HPM_P2
2023/08/26 00:03:54;;;;;;;13.63;12.32;;;20.30;99.90;;;20.83;100.00;97376.78;10433911;28;20255;-77
2023/08/26 00:08:57;;;;;;;14.68;13.38;;;20.20;99.90;;;20.82;100.00;97406.22;10431578;28;20240;-78
2023/08/26 00:14:01;;;;;;;15.65;14.25;;;20.30;99.90;;;20.81;100.00;97417.47;10438869;28;20240;-79
2023/08/26 00:19:05;;;;;;;16.17;14.57;;;20.30;99.90;;;20.73;100.00;97374.97;10429837;28;20785;-78
2023/08/26 00:24:09;;;;;;;15.88;14.27;;;20.20;99.90;;;20.65;100.00;97373.16;10433308;28;20249;-77
2023/08/26 00:29:12;;;;;;;15.27;13.85;;;20.20;99.90;;;20.64;100.00;97405.19;10436955;28;20235;-78
2023/08/26 00:34:17;;;;;;;15.77;14.40;;;20.20;99.90;;;20.64;100.00;97449.34;10429087;28;20225;-78
2023/08/26 00:39:20;;;;;;;16.15;14.68;;;20.20;99.90;;;20.74;100.00;97418.25;10434427;28;20861;-78
2023/08/26 00:44:23;;;;;;;16.77;15.18;;;20.20;99.90;;;20.64;100.00;97457.13;10432913;28;20225;-79
2023/08/26 00:49:29;;;;;;;15.95;14.50;;;20.10;99.90;;;20.67;100.00;97469.28;10432658;28;20240;-77
2023/08/26 00:54:35;;;;;;;16.35;14.77;;;20.10;99.90;;;20.69;100.00;97457.19;10434750;28;20225;-78
2023/08/26 00:59:39;;;;;;;14.63;13.32;;;20.10;99.90;;;20.58;100.00;97445.81;10429219;28;20237;-79
2023/08/26 01:04:44;;;;;;;16.60;14.90;;;20.10;99.90;;;20.57;100.00;97447.50;10433613;28;20228;-78
2023/08/26 01:09:48;;;;;;;15.30;13.80;;;20.10;99.90;;;20.58;100.00;97444.09;10434456;28;20240;-80
2023/08/26 01:15:00;;;;;;;14.38;13.07;;;20.10;99.90;;;20.44;100.00;97427.44;10431966;28;21005;-78
2023/08/26 01:20:07;;;;;;;14.98;13.68;;;19.90;99.90;;;20.35;100.00;97445.53;10434599;28;20232;-78
2023/08/26 01:25:12;;;;;;;14.07;12.57;;;19.80;99.90;;;20.31;100.00;97467.09;10436581;28;20225;-79
2023/08/26 01:30:15;;;;;;;13.80;12.50;;;19.80;99.90;;;20.48;100.00;97530.47;10434743;28;20229;-79
2023/08/26 01:35:25;;;;;;;13.50;12.20;;;19.90;99.90;;;20.25;100.00;97460.97;10431512;28;20304;-78
2023/08/26 01:40:30;;;;;;;12.82;11.60;;;19.70;99.90;;;20.10;100.00;97486.72;10442378;28;20236;-79
2023/08/26 01:45:33;;;;;;;12.68;11.40;;;19.60;99.90;;;20.09;100.00;97510.03;10439612;28;20229;-80
2023/08/26 01:50:37;;;;;;;13.32;12.00;;;19.60;99.90;;;20.17;100.00;97524.91;10439305;28;20317;-80
2023/08/26 01:55:42;;;;;;;13.52;12.13;;;19.60;99.90;;;20.16;100.00;97525.72;10438737;28;20237;-80
2023/08/26 02:00:45;;;;;;;13.13;11.73;;;19.60;99.90;;;20.10;100.00;97529.97;10439342;28;20228;-80
2023/08/26 02:05:48;;;;;;;12.30;11.10;;;19.60;99.90;;;20.11;100.00;97516.13;10437543;28;20229;-80
2023/08/26 02:10:55;;;;;;;13.50;12.20;;;19.60;99.90;;;20.06;100.00;97521.28;10443165;28;20222;-80
2023/08/26 02:15:59;;;;;;;12.57;11.30;;;19.60;99.90;;;20.09;100.00;97515.22;10436254;28;20773;-80
2023/08/26 02:21:02;;;;;;;12.20;10.93;;;19.60;99.90;;;20.05;100.00;97527.31;10442998;28;20348;-80
2023/08/26 02:26:07;;;;;;;12.80;11.50;;;19.50;99.90;;;20.14;100.00;97536.94;10440935;28;20308;-80
2023/08/26 02:31:10;;;;;;;13.30;12.00;;;19.60;99.90;;;20.01;100.00;97538.50;10439295;28;20227;-79
2023/08/26 02:36:13;;;;;;;14.13;11.35;;;19.50;99.90;;;19.96;100.00;97542.75;10437463;28;20232;-79
2023/08/26 02:41:18;;;;;;;11.63;10.52;;;19.50;99.90;;;20.03;100.00;97536.81;10440473;28;20228;-79
2023/08/26 02:46:21;;;;;;;13.38;11.77;;;19.50;99.90;;;20.05;100.00;97540.28;10437236;28;20757;-78
2023/08/26 02:51:25;;;;;;;12.88;11.68;;;19.60;99.90;;;20.05;100.00;97524.72;10437029;28;20305;-80
2023/08/26 02:56:29;;;;;;;13.02;11.68;;;19.50;99.90;;;19.90;100.00;97520.19;10437762;28;20284;-78
2023/08/26 03:01:33;;;;;;;13.13;11.80;;;19.40;99.90;;;19.93;100.00;97520.22;10439291;28;20228;-77
2023/08/26 03:06:36;;;;;;;13.05;11.77;;;19.50;99.90;;;20.01;100.00;97515.16;10434810;28;20256;-79
2023/08/26 03:11:41;;;;;;;13.77;12.40;;;19.50;99.90;;;20.06;100.00;97536.84;10437590;28;20241;-79
2023/08/26 03:16:44;;;;;;;13.85;12.48;;;19.60;99.90;;;20.07;100.00;97527.34;10438934;28;20229;-79
2023/08/26 03:21:47;;;;;;;12.00;10.93;;;19.60;99.90;;;20.02;100.00;97525.53;10436978;28;20224;-79
2023/08/26 03:26:52;;;;;;;13.63;11.82;;;19.50;99.90;;;20.03;100.00;97516.06;10441670;28;20228;-80
2023/08/26 03:31:56;;;;;;;10.48;9.48;;;19.50;99.90;;;20.01;100.00;97521.19;10442477;28;20605;-79
2023/08/26 03:36:59;;;;;;;11.52;10.43;;;19.50;99.90;;;20.01;100.00;97515.16;10437212;28;20229;-77
2023/08/26 03:42:04;;;;;;;10.93;9.90;;;19.50;99.90;;;20.02;100.00;97529.84;10436405;28;20826;-78
2023/08/26 03:47:07;;;;;;;11.15;9.95;;;19.50;99.90;;;19.96;100.00;97530.63;10434133;28;20221;-80
2023/08/26 03:52:11;;;;;;;10.80;9.80;;;19.40;99.90;;;19.96;100.00;97534.97;10434017;28;20225;-79
2023/08/26 03:57:15;;;;;;;10.57;9.68;;;19.40;99.90;;;19.98;100.00;97543.66;10433823;28;20225;-79
2023/08/26 04:02:19;;;;;;;11.40;10.30;;;19.40;99.90;;;20.02;100.00;97553.22;10428759;28;20226;-79
2023/08/26 04:07:22;;;;;;;11.10;9.43;;;19.40;99.90;;;19.92;100.00;97540.97;10422526;28;20225;-79
2023/08/26 04:12:27;;;;;;;10.27;9.38;;;19.30;99.90;;;19.92;100.00;97538.38;10426067;28;20634;-78
2023/08/26 04:17:30;;;;;;;11.10;9.85;;;19.30;99.90;;;19.87;100.00;97535.69;10423689;28;20240;-78
2023/08/26 04:22:34;;;;;;;10.43;9.38;;;19.30;99.90;;;19.76;100.00;97552.81;10422996;28;20232;-78
2023/08/26 04:27:39;;;;;;;10.43;9.43;;;19.20;99.90;;;19.71;100.00;97570.00;10424674;28;20229;-78
2023/08/26 04:32:42;;;;;;;11.95;9.93;;;19.10;99.90;;;19.73;100.00;97578.69;10429286;28;20225;-78
2023/08/26 04:37:45;;;;;;;11.32;10.02;;;19.20;99.90;;;19.71;100.00;97588.16;10424772;28;20228;-78
2023/08/26 04:42:50;;;;;;;10.48;9.57;;;19.20;99.90;;;19.74;100.00;97589.13;10424742;28;20591;-78
2023/08/26 04:47:53;;;;;;;12.40;11.25;;;19.20;99.90;;;19.86;100.00;97595.31;10425094;28;20240;-79
2023/08/26 04:52:57;;;;;;;12.25;11.10;;;19.30;99.90;;;19.92;100.00;97605.81;10418833;28;20259;-78
2023/08/26 04:58:02;;;;;;;12.60;11.50;;;19.30;99.90;;;19.95;100.00;97621.44;10419407;28;20229;-78
2023/08/26 05:03:05;;;;;;;11.68;10.50;;;19.30;99.90;;;19.96;100.00;97633.53;10416308;28;20248;-78
2023/08/26 05:08:09;;;;;;;12.93;11.60;;;19.40;99.90;;;19.95;100.00;97630.09;10423930;28;20236;-78
2023/08/26 05:13:13;;;;;;;12.50;11.20;;;19.30;99.90;;;19.94;100.00;97628.31;10429978;28;20234;-78
2023/08/26 05:18:18;;;;;;;13.10;11.88;;;19.40;99.90;;;19.97;100.00;97609.34;10426619;28;20228;-78
2023/08/26 05:23:21;;;;;;;12.25;11.05;;;19.40;99.90;;;19.99;100.00;97611.13;10430916;28;20586;-78
2023/08/26 05:28:26;;;;;;;12.07;10.98;;;19.40;99.90;;;20.09;100.00;97609.56;10429453;28;20233;-78
2023/08/26 05:33:29;;;;;;;11.13;10.13;;;19.40;99.90;;;20.21;100.00;97614.91;10426923;28;20221;-79
2023/08/26 05:38:32;;;;;;;11.45;10.38;;;19.60;99.90;;;20.32;100.00;97619.41;10427305;28;20601;-78
2023/08/26 05:43:37;;;;;;;13.32;12.23;;;19.60;99.90;;;20.42;100.00;97629.06;10429645;28;20228;-79
2023/08/26 05:48:40;;;;;;;11.32;10.23;;;19.60;99.90;;;20.35;100.00;97632.44;10430343;28;20231;-78
2023/08/26 05:53:43;;;;;;;11.00;10.10;;;19.60;99.90;;;20.37;100.00;97638.50;10452942;28;20674;-78
2023/08/26 05:58:48;;;;;;;11.07;10.07;;;19.60;99.90;;;20.23;100.00;97623.63;10448603;28;20239;-78
2023/08/26 06:03:52;;;;;;;12.63;10.25;;;19.50;99.90;;;20.21;100.00;97625.31;10451171;28;20690;-78
2023/08/26 06:08:56;;;;;;;12.98;10.77;;;19.60;99.90;;;20.54;100.00;97624.06;10453693;28;20875;-79
2023/08/26 06:14:01;;;;;;;9.90;8.90;;;19.80;99.90;;;20.76;100.00;97629.56;10438071;28;20236;-78
2023/08/26 06:19:05;;;;;;;9.82;8.60;;;20.00;99.90;;;21.14;100.00;97636.09;10442002;28;20237;-78
2023/08/26 06:24:08;;;;;;;9.38;8.48;;;20.20;99.90;;;21.40;100.00;97632.94;10452255;28;20225;-78
2023/08/26 06:29:17;;;;;;;9.23;7.65;;;20.40;99.90;;;21.89;100.00;97638.66;10447463;28;20225;-78
2023/08/26 06:34:20;;;;;;;7.93;7.15;;;20.90;99.90;;;22.17;100.00;97646.66;10448556;28;20225;-78
2023/08/26 06:39:23;;;;;;;7.00;6.25;;;21.20;99.90;;;22.56;100.00;97648.72;10441800;28;20307;-77
2023/08/26 06:44:28;;;;;;;9.05;7.00;;;21.50;99.90;;;22.03;100.00;97654.34;10447660;28;20229;-79
2023/08/26 06:49:31;;;;;;;6.90;6.10;;;21.10;99.90;;;21.72;100.00;97651.50;10437221;28;20228;-78
2023/08/26 06:54:35;;;;;;;7.05;6.35;;;20.90;99.90;;;21.62;100.00;97657.47;10447561;28;20240;-78
2023/08/26 06:59:39;;;;;;;7.22;6.53;;;20.80;99.90;;;21.49;100.00;97660.78;10443618;28;20237;-78
2023/08/26 07:04:45;;;;;;;7.70;6.93;;;20.70;99.90;;;21.50;100.00;97663.41;10441417;28;20228;-78
2023/08/26 07:09:48;;;;;;;9.80;6.90;;;20.70;99.90;;;21.64;100.00;97660.97;10442120;28;20236;-77
2023/08/26 07:14:53;;;;;;;8.02;6.80;;;20.80;99.90;;;21.56;100.00;97647.84;10444047;28;20744;-78
2023/08/26 07:19:56;;;;;;;9.65;6.60;;;20.70;99.90;;;21.38;100.00;97652.88;10441547;28;20227;-78
2023/08/26 07:24:59;;;;;;;7.75;6.95;;;20.70;99.90;;;21.53;100.00;97647.84;10444884;28;20320;-77
2023/08/26 07:30:06;;;;;;;8.20;6.72;;;20.80;99.90;;;21.53;100.00;97658.22;10445724;28;20267;-78
2023/08/26 07:35:12;;;;;;;7.85;6.43;;;20.60;99.90;;;21.45;100.00;97664.22;10445560;28;20325;-78
2023/08/26 07:40:16;;;;;;;6.78;6.05;;;20.60;99.90;;;21.62;100.00;97667.00;10434628;28;20387;-78
2023/08/26 07:45:20;;;;;;;7.50;6.85;;;20.80;99.90;;;21.61;100.00;97670.47;10434724;28;20236;-78
2023/08/26 07:50:24;;;;;;;7.55;6.78;;;20.80;99.90;;;21.51;100.00;97659.06;10443118;28;20236;-78
2023/08/26 07:55:27;;;;;;;8.77;6.15;;;20.70;99.90;;;21.57;100.00;97662.59;10439159;28;20810;-77
2023/08/26 08:00:32;;;;;;;7.18;6.47;;;20.70;99.90;;;21.75;100.00;97656.72;10433205;28;20225;-76
2023/08/26 08:05:35;;;;;;;8.90;6.63;;;20.70;99.90;;;21.99;100.00;97653.47;10439312;28;20248;-77
2023/08/26 08:10:38;;;;;;;7.47;6.70;;;21.10;99.90;;;22.08;99.72;97630.97;10435471;28;20319;-79
2023/08/26 08:15:43;;;;;;;7.65;6.47;;;21.10;99.90;;;22.21;98.11;97641.53;10433134;28;20229;-77
2023/08/26 08:20:46;;;;;;;7.90;6.25;;;21.30;99.90;;;23.09;94.15;97653.38;10439377;28;20225;-77
2023/08/26 08:25:49;;;;;;;5.88;5.38;;;22.20;99.90;;;23.16;91.72;97629.06;10433177;28;20231;-77
2023/08/26 08:30:54;;;;;;;8.05;7.25;;;22.10;99.90;;;22.77;91.20;97640.13;10435726;28;20232;-77
2023/08/26 08:35:58;;;;;;;10.70;6.78;;;21.90;99.90;;;22.53;94.58;97651.31;10438614;28;20311;-77
2023/08/26 08:41:02;;;;;;;6.47;5.75;;;21.80;99.90;;;22.59;92.31;97640.03;10436903;28;20231;-76
2023/08/26 08:46:07;;;;;;;6.80;5.68;;;21.60;99.90;;;22.53;94.26;97633.06;10430784;28;20225;-77
2023/08/26 08:51:12;;;;;;;9.48;5.85;;;21.60;99.90;;;22.59;89.35;97646.13;10439497;28;20233;-78
2023/08/26 08:56:17;;;;;;;6.68;5.43;;;21.60;99.90;;;23.30;89.76;97647.34;10442053;28;20705;-78
2023/08/26 09:01:25;;;;;;;7.18;5.18;;;22.30;99.90;;;23.46;90.83;97656.09;10440847;28;20243;-78
2023/08/26 09:06:28;;;;;;;8.38;5.63;;;22.40;99.90;;;23.20;89.14;97656.00;10443397;28;20331;-78
2023/08/26 09:11:31;;;;;;;6.80;5.45;;;22.20;99.90;;;23.30;85.67;97647.34;10442269;28;20224;-79
2023/08/26 09:16:41;;;;;;;5.82;5.30;;;22.00;99.90;;;22.96;86.62;97637.66;10444440;28;20225;-79
2023/08/26 09:21:45;;;;;;;5.57;5.00;;;22.00;99.90;;;23.13;84.13;97617.75;10443653;28;20255;-78
2023/08/26 09:26:59;;;;;;;6.22;5.13;;;22.20;99.90;;;23.33;83.26;97631.72;10439025;28;20228;-78
2023/08/26 09:32:05;;;;;;;5.75;5.13;;;22.30;99.90;;;23.49;83.61;97631.75;10433618;28;20705;-76
2023/08/26 09:37:09;;;;;;;6.00;4.85;;;22.50;99.90;;;23.95;80.41;97631.81;10432900;28;20266;-77
2023/08/26 09:42:13;;;;;;;6.75;4.72;;;22.90;99.90;;;23.98;80.44;97626.59;10438371;28;20227;-77
2023/08/26 09:47:18;;;;;;;7.10;4.82;;;22.80;99.90;;;23.90;80.60;97625.75;10435802;28;20316;-78
2023/08/26 09:52:21;;;;;;;7.25;4.60;;;22.80;99.90;;;24.02;77.32;97615.31;10435082;28;20231;-78
2023/08/26 09:57:24;;;;;;;5.30;4.80;;;22.90;99.90;;;23.90;77.03;97618.78;10434731;28;20687;-78
2023/08/26 10:02:31;;;;;;;5.75;4.18;;;22.70;99.90;;;23.98;75.48;97595.28;10440571;28;20224;-78
2023/08/26 10:07:35;;;;;;;4.75;4.28;;;22.80;99.90;;;23.97;75.10;97598.75;10432648;28;20243;-78
2023/08/26 10:12:42;;;;;;;6.30;4.90;;;22.90;99.90;;;23.75;76.00;97579.59;10427758;28;20232;-79
2023/08/26 10:17:50;;;;;;;5.35;4.70;;;22.80;99.90;;;23.79;76.89;97571.78;10435139;28;21791;-78
2023/08/26 10:22:54;;;;;;;6.65;4.82;;;22.80;99.90;;;24.11;75.72;97576.13;10430422;28;20267;-78
2023/08/26 10:27:58;;;;;;;5.57;4.78;;;23.20;99.90;;;24.30;78.65;97582.19;10438312;28;20237;-78
2023/08/26 10:33:05;;;;;;;6.13;5.18;;;23.40;99.90;;;24.49;75.59;97593.50;10454134;28;20227;-78
2023/08/26 10:38:10;;;;;;;5.45;4.95;;;23.60;99.90;;;24.69;75.28;97585.59;10434487;28;20290;-78
2023/08/26 10:43:14;;;;;;;5.53;4.63;;;23.60;99.90;;;24.34;72.84;97594.38;10424274;28;20321;-77
2023/08/26 10:48:20;;;;;;;6.38;4.30;;;23.40;99.90;;;24.50;75.45;97584.78;10426968;28;20252;-77
2023/08/26 10:53:23;;;;;;;7.75;5.07;;;23.50;99.90;;;24.43;73.25;97577.84;10426441;28;20232;-77
2023/08/26 10:58:43;;;;;;;5.22;4.75;;;23.40;99.90;;;24.57;74.60;97581.28;10426452;28;20845;-78
2023/08/26 11:03:47;;;;;;;5.18;4.68;;;23.60;99.90;;;24.76;74.91;97581.22;10423835;28;20718;-78
2023/08/26 11:08:56;;;;;;;6.47;4.65;;;23.80;99.90;;;24.78;73.82;97569.91;10422836;28;20232;-78
2023/08/26 11:13:59;;;;;;;6.70;4.18;;;24.00;99.90;;;25.22;70.54;97575.81;10427129;28;20233;-77
2023/08/26 11:19:04;;;;;;;6.35;4.40;;;24.30;99.90;;;25.39;66.77;97580.06;10422205;28;20225;-81
2023/08/26 11:24:09;;;;;;;5.55;4.53;;;24.30;99.90;;;25.49;67.38;97557.28;10424471;28;20243;-79
2023/08/26 11:29:12;;;;;;;6.20;4.65;;;24.50;99.90;;;25.31;68.31;97541.72;10432271;28;20232;-78
2023/08/26 11:34:23;;;;;;;6.25;4.68;;;24.40;99.90;;;25.35;69.56;97525.13;10428699;28;20717;-78
2023/08/26 11:43:55;;;;;;;6.72;4.90;;;24.50;99.90;;;25.76;69.35;97535.28;10487493;27;20792;-71
2023/08/26 11:48:59;;;;;;;5.00;4.50;;;24.90;99.90;;;25.84;67.73;97562.31;10511500;27;20472;-71
2023/08/26 11:54:02;;;;;;;7.20;5.22;;;24.70;99.90;;;25.78;67.62;97571.91;10524342;27;20230;-71
2023/08/26 11:59:19;;;;;;;6.15;4.40;;;24.70;99.90;;;25.50;69.39;97573.91;10528732;27;20218;-71
2023/08/26 12:04:23;;;;;;;7.18;4.85;;;24.30;99.90;;;25.01;71.31;97556.72;10533319;27;20237;-71
2023/08/26 12:09:26;;;;;;;5.50;5.00;;;24.00;99.90;;;24.83;69.77;97567.25;10539302;27;20219;-70
2023/08/26 12:14:32;;;;;;;6.68;5.00;;;23.90;99.90;;;25.02;70.44;97573.28;10543456;27;20231;-71
2023/08/26 12:19:42;;;;;;;5.57;5.07;;;24.00;99.90;;;25.06;69.67;97554.91;10534192;27;20569;-72
2023/08/26 12:24:46;;;;;;;5.65;4.75;;;24.00;99.90;;;24.71;74.84;97553.34;10530768;27;20226;-71
2023/08/26 12:29:50;;;;;;;5.78;5.20;;;23.70;99.90;;;24.65;75.97;97569.06;10531069;27;20548;-71
2023/08/26 12:34:53;;;;;;;5.65;4.93;;;23.60;99.90;;;24.55;76.21;97567.34;10527317;27;20265;-70
2023/08/26 12:39:57;;;;;;;7.63;5.82;;;23.60;99.90;;;23.86;83.56;97553.50;10545930;27;20758;-71
2023/08/26 12:45:02;;;;;;;7.55;6.00;;;23.20;99.90;;;23.07;85.97;97513.44;10532724;27;20227;-71
2023/08/26 12:50:07;;;;;;;7.80;7.07;;;22.40;99.90;;;22.78;90.97;97495.94;10527476;27;20219;-71
2023/08/26 12:55:12;;;;;;;9.82;6.93;;;22.20;99.90;;;22.60;93.94;97547.97;10502899;28;20247;-72
2023/08/26 13:00:17;;;;;;;9.20;7.15;;;22.10;99.90;;;22.47;100.00;97542.72;10505369;28;20896;-71
2023/08/26 13:05:20;;;;;;;7.85;7.13;;;22.00;99.90;;;22.26;100.00;97538.28;10502747;28;20227;-71
2023/08/26 13:10:24;;;;;;;8.45;7.55;;;21.80;99.90;;;22.18;100.00;97550.38;10507533;27;20238;-71
2023/08/26 13:15:28;;;;;;;8.80;8.00;;;21.70;99.90;;;21.94;100.00;97565.78;10503625;28;20231;-71
2023/08/26 13:20:32;;;;;;;8.30;7.50;;;21.50;99.90;;;21.80;100.00;97573.47;10500967;28;20640;-70
2023/08/26 13:25:35;;;;;;;8.85;7.25;;;21.40;99.90;;;21.36;100.00;97582.63;10501920;28;20245;-70
2023/08/26 13:30:40;;;;;;;6.95;5.90;;;21.00;99.90;;;20.98;100.00;97587.41;10505284;28;20871;-71
2023/08/26 13:35:43;;;;;;;8.05;7.35;;;20.60;99.90;;;20.88;100.00;97603.72;10499240;28;20223;-70
2023/08/26 13:40:46;;;;;;;7.22;6.53;;;20.40;99.90;;;20.67;100.00;97607.81;10505921;28;20223;-70
2023/08/26 13:45:52;;;;;;;9.73;7.10;;;20.30;99.90;;;20.36;100.00;97649.75;10499377;28;20358;-71
2023/08/26 13:50:55;;;;;;;8.70;5.93;;;20.00;99.90;;;19.87;100.00;97654.16;10502870;28;20220;-69
2023/08/26 13:55:58;;;;;;;5.60;5.10;;;19.50;99.90;;;19.66;100.00;97633.88;10501531;28;20223;-70
2023/08/26 14:01:03;;;;;;;5.20;4.65;;;19.20;99.90;;;19.57;100.00;97650.13;10499584;28;20216;-70
2023/08/26 14:06:07;;;;;;;5.45;4.95;;;19.10;99.90;;;19.40;100.00;97664.50;10495501;28;20257;-70
2023/08/26 14:11:10;;;;;;;6.85;5.00;;;18.90;99.90;;;19.12;100.00;97656.19;10499881;28;20231;-70
2023/08/26 14:16:15;;;;;;;5.28;4.78;;;18.70;99.90;;;18.88;100.00;97618.56;10496600;28;20227;-70
2023/08/26 14:21:20;;;;;;;5.47;4.85;;;18.50;99.90;;;18.84;100.00;97603.81;10496648;28;20311;-70
2023/08/26 14:26:23;;;;;;;5.28;4.50;;;18.40;99.90;;;18.79;100.00;97571.78;10498695;28;20246;-70
2023/08/26 14:31:28;;;;;;;5.72;5.05;;;18.30;99.90;;;18.62;100.00;97607.63;10496683;28;20312;-70
2023/08/26 14:36:31;;;;;;;5.57;4.90;;;18.30;99.90;;;18.67;100.00;97595.66;10498012;28;20228;-70
2023/08/26 14:41:34;;;;;;;5.38;4.78;;;18.30;99.90;;;18.55;100.00;97620.44;10498948;27;20239;-70
2023/08/26 14:46:38;;;;;;;6.20;4.75;;;18.30;99.90;;;18.63;100.00;97624.06;10498153;28;20605;-70
2023/08/26 14:51:44;;;;;;;6.97;5.30;;;18.30;99.90;;;18.64;100.00;97611.16;10493309;28;20833;-70
2023/08/26 14:56:47;;;;;;;6.43;5.00;;;18.30;99.90;;;18.76;100.00;97592.44;10507066;27;20223;-70
2023/08/26 15:01:51;;;;;;;4.78;4.38;;;18.30;99.90;;;18.96;100.00;97597.16;10506569;28;20227;-71
2023/08/26 15:06:55;;;;;;;8.32;5.40;;;18.40;99.90;;;19.07;100.00;97634.50;10497609;28;20227;-71
2023/08/26 15:11:58;;;;;;;5.47;4.95;;;18.50;99.90;;;19.10;100.00;97619.00;10511711;28;20782;-70
2023/08/26 15:17:03;;;;;;;7.18;5.32;;;18.60;99.90;;;19.15;100.00;97648.47;10492824;28;20220;-70
2023/08/26 15:22:07;;;;;;;5.60;4.72;;;18.60;99.90;;;19.12;100.00;97643.25;10494310;28;20232;-71
2023/08/26 15:27:11;;;;;;;5.78;5.13;;;18.50;99.90;;;19.05;100.00;97643.94;10497730;28;20227;-71
2023/08/26 15:32:15;;;;;;;6.72;4.78;;;18.40;99.90;;;18.97;100.00;97640.31;10518367;28;20241;-71
2023/08/26 15:37:18;;;;;;;5.72;5.13;;;18.40;99.90;;;18.87;100.00;97663.44;10516220;28;20246;-70
2023/08/26 15:42:21;;;;;;;5.90;5.30;;;18.30;99.90;;;18.80;100.00;97643.47;10514911;28;20219;-71
2023/08/26 15:47:26;;;;;;;6.32;5.63;;;18.30;99.90;;;18.85;100.00;97657.34;10517679;28;20220;-70
2023/08/26 15:52:29;;;;;;;6.15;5.38;;;18.30;99.90;;;18.95;100.00;97662.75;10516434;28;20361;-71
2023/08/26 15:57:32;;;;;;;6.07;5.47;;;18.30;99.90;;;19.04;100.00;97676.75;10514476;28;20227;-72
2023/08/26 16:02:36;;;;;;;6.10;5.60;;;18.40;99.90;;;18.94;100.00;97671.34;10517232;28;20611;-71
2023/08/26 16:07:41;;;;;;;6.00;5.38;;;18.40;99.90;;;18.87;100.00;97671.22;10500131;28;20373;-71
2023/08/26 16:12:44;;;;;;;6.03;5.43;;;18.30;99.90;;;18.74;100.00;97689.91;10513350;28;20227;-71
2023/08/26 16:17:49;;;;;;;6.15;5.60;;;18.20;99.90;;;18.80;100.00;97668.47;10513996;27;20305;-71
2023/08/26 16:22:52;;;;;;;6.18;5.57;;;18.20;99.90;;;18.57;100.00;97661.06;10506936;28;20759;-70
2023/08/26 16:27:55;;;;;;;6.38;5.78;;;18.00;99.90;;;18.27;100.00;97637.06;10517945;28;20227;-69
2023/08/26 16:33:01;;;;;;;6.70;6.00;;;17.80;99.90;;;18.34;100.00;97641.53;10516533;28;20235;-70
2023/08/26 16:38:06;;;;;;;7.55;6.85;;;17.90;99.90;;;18.40;100.00;97639.97;10513176;28;20620;-70
2023/08/26 16:43:10;;;;;;;7.13;6.45;;;18.00;99.90;;;18.45;100.00;97625.38;10508928;28;20232;-70
2023/08/26 16:48:14;;;;;;;8.30;6.63;;;18.10;99.90;;;18.36;100.00;97645.91;10502709;28;20232;-71
2023/08/26 16:53:17;;;;;;;6.65;6.15;;;18.00;99.90;;;18.51;100.00;97654.84;10500839;28;21045;-69
2023/08/26 16:58:20;;;;;;;8.90;7.15;;;18.00;99.90;;;18.72;100.00;97659.66;10513745;27;20238;-69
2023/08/26 17:03:25;;;;;;;7.93;7.15;;;18.30;99.90;;;18.75;100.00;97663.19;10464376;22;20702;-69
2023/08/26 17:08:28;;;;;;;6.97;6.38;;;18.30;99.90;;;18.70;100.00;97659.59;10302448;28;20226;-69
2023/08/26 17:13:32;;;;;;;6.68;6.03;;;18.20;99.90;;;18.60;100.00;97644.69;10310184;28;20242;-69
2023/08/26 17:18:36;;;;;;;7.10;6.45;;;18.00;99.90;;;18.42;100.00;97651.19;10306212;28;20226;-69
2023/08/26 17:23:40;;;;;;;8.27;6.70;;;17.90;99.90;;;18.46;100.00;97657.34;10302837;28;20230;-69
2023/08/26 17:28:43;;;;;;;9.23;7.18;;;18.10;99.90;;;18.53;100.00;97659.22;10301796;28;20232;-69
2023/08/26 17:33:47;;;;;;;7.70;6.90;;;17.90;99.90;;;18.42;100.00;97651.19;10321419;28;20235;-69
2023/08/26 17:38:50;;;;;;;10.05;7.28;;;17.90;99.90;;;18.40;100.00;97645.16;10347403;28;20226;-69
2023/08/26 17:43:53;;;;;;;7.57;6.88;;;17.90;99.90;;;18.41;100.00;97633.94;10346810;28;20230;-69
2023/08/26 17:48:58;;;;;;;8.88;7.35;;;17.90;99.90;;;18.32;100.00;97632.88;10355298;28;20221;-69
2023/08/26 17:54:01;;;;;;;8.00;7.38;;;17.80;99.90;;;18.37;100.00;97637.31;10338291;28;20235;-69
2023/08/26 17:59:04;;;;;;;7.80;7.00;;;17.80;99.90;;;18.33;100.00;97645.81;10340085;28;20219;-70
2023/08/26 18:04:08;;;;;;;8.80;8.00;;;17.90;99.90;;;18.33;100.00;97655.31;10347276;28;20615;-70
2023/08/26 18:09:12;;;;;;;8.70;7.80;;;17.80;99.90;;;18.42;100.00;97646.03;10344141;28;20226;-69
2023/08/26 18:14:15;;;;;;;9.27;7.80;;;17.90;99.90;;;18.45;100.00;97651.28;10335243;28;20288;-70
2023/08/26 18:19:19;;;;;;;8.27;7.28;;;17.90;99.90;;;18.45;100.00;97658.16;10340648;28;20230;-70
2023/08/26 18:24:23;;;;;;;7.82;7.07;;;17.90;99.90;;;18.37;100.00;97663.19;10335715;28;20242;-70
2023/08/26 18:29:26;;;;;;;8.95;8.05;;;17.80;99.90;;;18.42;100.00;97663.28;10335059;28;20720;-70
2023/08/26 18:34:30;;;;;;;8.50;7.60;;;17.90;99.90;;;18.38;100.00;97653.72;10331754;28;20314;-70
2023/08/26 18:39:33;;;;;;;9.38;7.60;;;17.80;99.90;;;18.45;100.00;97664.22;10334906;28;20223;-70
2023/08/26 18:44:37;;;;;;;8.57;7.80;;;17.90;99.90;;;18.45;100.00;97656.44;10331702;28;20230;-69
2023/08/26 18:49:42;;;;;;;9.88;8.63;;;17.80;99.90;;;18.37;100.00;97657.13;10331969;28;20226;-69
2023/08/26 18:54:45;;;;;;;8.50;7.80;;;17.70;99.90;;;18.24;100.00;97658.56;10335649;28;20993;-70
2023/08/26 18:59:48;;;;;;;8.10;7.40;;;17.70;99.90;;;18.32;100.00;97677.72;10331217;28;20227;-70
2023/08/26 19:04:52;;;;;;;8.98;8.07;;;17.80;99.90;;;18.35;100.00;97679.50;10327358;28;21025;-70
2023/08/26 19:09:56;;;;;;;8.10;7.40;;;17.80;99.90;;;18.37;100.00;97668.38;10334664;28;20223;-70
2023/08/26 19:14:59;;;;;;;8.52;7.70;;;17.80;99.90;;;18.30;100.00;97661.28;10330041;28;20229;-70
2023/08/26 19:20:04;;;;;;;10.85;9.85;;;17.70;99.90;;;18.32;100.00;97645.81;10333561;28;20847;-70
2023/08/26 19:25:09;;;;;;;10.48;9.35;;;17.70;99.90;;;18.26;100.00;97650.81;10331322;28;20234;-70
2023/08/26 19:30:13;;;;;;;10.52;9.52;;;17.60;99.90;;;18.14;100.00;97659.16;10334883;28;20602;-70
2023/08/26 19:35:17;;;;;;;9.50;8.52;;;17.60;99.90;;;18.18;100.00;97651.53;10344411;28;20241;-70
2023/08/26 19:40:21;;;;;;;8.43;7.47;;;17.50;99.90;;;18.14;100.00;97633.28;10336211;28;20253;-70
2023/08/26 19:45:25;;;;;;;9.30;8.45;;;17.60;99.90;;;18.12;100.00;97629.81;10331141;28;20226;-70
2023/08/26 19:50:29;;;;;;;9.55;8.80;;;17.50;99.90;;;18.21;100.00;97624.84;10332460;28;20227;-69
2023/08/26 19:55:32;;;;;;;8.75;7.85;;;17.60;99.90;;;18.20;100.00;97617.94;10336444;28;20637;-70
2023/08/26 20:00:35;;;;;;;8.35;7.53;;;17.60;99.90;;;18.20;100.00;97617.94;10336216;28;20226;-70
2023/08/26 20:05:40;;;;;;;8.65;7.95;;;17.60;99.90;;;18.13;100.00;97626.38;10355300;28;20234;-70
2023/08/26 20:10:43;;;;;;;7.90;7.30;;;17.50;99.90;;;18.09;100.00;97632.34;10341580;28;20237;-70
2023/08/26 20:15:46;;;;;;;9.73;8.82;;;17.40;99.90;;;18.01;100.00;97633.00;10346036;28;20237;-70
2023/08/26 20:20:57;;;;;;;8.60;7.80;;;17.40;99.90;;;18.02;100.00;97634.75;10338812;28;20233;-70
2023/08/26 20:26:03;;;;;;;9.90;8.95;;;17.40;99.90;;;18.02;100.00;97629.56;10348532;28;20238;-70
2023/08/26 20:31:06;;;;;;;9.15;8.27;;;17.40;99.90;;;18.02;100.00;97623.53;10355888;28;20239;-70
2023/08/26 20:36:11;;;;;;;9.57;8.70;;;17.40;99.90;;;17.73;100.00;97620.22;10335003;28;20353;-70
2023/08/26 20:41:14;;;;;;;7.95;7.35;;;17.10;99.90;;;17.68;100.00;97627.84;10344675;28;20241;-70
2023/08/26 20:46:17;;;;;;;7.55;6.88;;;17.10;99.90;;;17.84;100.00;97626.56;10339559;28;20234;-70
2023/08/26 20:51:22;;;;;;;9.68;8.65;;;17.20;99.90;;;17.87;100.00;97624.03;10339308;28;21173;-70